Saturday, February 13, 2016, 6:37 PM EST
Back to Local

KCXY, Harrisburg Capital City

Location: New Cumberland, PA, United States Lat: 40.217
Local Time: 6:37 PM EST (23:37 GMT) Lon: -76.85
Time Zone: US/Eastern Elev: 347 ft

Show me the last for .
Show Decoded

2016-02-13 17:56 METAR KCXY 132256Z 31012G22KT 10SM BKN055 OVC070 M09/M19 A3031 RMK AO2 PK WND
                 30030/2204 SLP272 T10941194 =
2016-02-13 16:56 METAR KCXY 132156Z 32013G21KT 10SM BKN060 OVC075 M09/M22 A3029 RMK AO2 SLP265
                 T10941217 =
2016-02-13 15:56 METAR KCXY 132056Z 30016G28KT 10SM BKN065 OVC080 M09/M22 A3027 RMK AO2 PK WND
                 32028/1957 SLP258 60000 T10941217 53015 =
2016-02-13 14:56 METAR KCXY 131956Z 31019G27KT 10SM FEW047 BKN060 M09/M22 A3025 RMK AO2 PK WND
                 31032/1924 UPB27E36 SLP251 P0000 T10941217 =
2016-02-13 13:56 METAR KCXY 131856Z 31011G26KT 10SM OVC055 M09/M21 A3024 RMK AO2 PK WND
                 27029/1827 SLP246 T10891211 =
2016-02-13 12:56 METAR KCXY 131756Z 29018G28KT 10SM OVC060 M08/M21 A3023 RMK AO2 PK WND
                 30032/1735 SLP243 T10831211 11078 21089 51014 =
2016-02-13 11:56 METAR KCXY 131656Z 32015G31KT 10SM BKN050 BKN075 M08/M21 A3022 RMK AO2 PK WND
                 31031/1649 SLP241 T10781206 =
2016-02-13 10:56 METAR KCXY 131556Z 30017G27KT 10SM OVC060 M08/M21 A3021 RMK AO2 PK WND
                 30031/1546 SLP237 T10781206 =
2016-02-13 09:56 METAR KCXY 131456Z 30016G24KT 10SM FEW055 M08/M20 A3019 RMK AO2 PK WND
                 31033/1410 SLP230 T10831200 51029 =
2016-02-13 08:56 METAR KCXY 131356Z 30019G26KT 10SM BKN055 M08/M20 A3016 RMK AO2 PK WND
                 29028/1318 SLP221 T10831200 =
2016-02-13 07:56 METAR KCXY 131256Z 28013G29KT 9SM FEW050 M08/M19 A3013 RMK AO2 PK WND 30029/1250
                 SLP209 T10831194 =
2016-02-13 06:56 METAR KCXY 131156Z 30015G22KT 10SM CLR M08/M19 A3010 RMK AO2 SLP200 60000
                 T10831194 11056 21083 51042 =
2016-02-13 05:56 METAR KCXY 131056Z AUTO 30018G26KT 9SM CLR M07/M19 A3007 RMK AO2 PK WND
                 32026/1056 SLP187 T10721189 =
2016-02-13 04:56 METAR KCXY 130956Z AUTO 31012G26KT 10SM FEW045 BKN080 M07/M16 A3002 RMK AO2 PK
                 WND 30026/0948 SLP172 T10671161 =
2016-02-13 03:56 METAR KCXY 130856Z AUTO 29012G21KT 10SM CLR M06/M16 A2998 RMK AO2 SLP157 60000
                 T10611161 53012 =
2016-02-13 02:56 METAR KCXY 130756Z AUTO 28009KT 10SM SCT090 M07/M13 A2995 RMK AO2 SNB29E41
                 SLP149 P0000 T10671128 =
2016-02-13 01:56 METAR KCXY 130656Z AUTO 25007KT 10SM SCT043 M08/M12 A2993 RMK AO2 SLP142
                 T10781122 =
2016-02-13 00:56 METAR KCXY 130556Z AUTO 27005KT 10SM BKN040 BKN049 M08/M11 A2994 RMK AO2 SLP146
                 60000 T10781111 11061 21078 56012 =
2016-02-12 23:56 METAR KCXY 130456Z AUTO 26004KT 7SM CLR M07/M10 A2995 RMK AO2 SLP148 T10721100
                 410441150 =
2016-02-12 22:56 METAR KCXY 130356Z AUTO 28003KT 8SM OVC095 M06/M09 A2996 RMK AO2 SNE0259 SLP151
                 P0000 T10611089 =
2016-02-12 21:56 METAR KCXY 130256Z AUTO 24005KT 5SM -SN FEW020 BKN043 OVC070 M06/M09 A2998 RMK
                 AO2 SLP158 P0000 60000 T10611089 57003 =
2016-02-12 21:52 METAR KCXY 130252Z AUTO 23004KT 4SM -SN FEW020 BKN040 OVC070 M06/M09 A2998 RMK
                 AO2 P0000 =
2016-02-12 21:01 METAR KCXY 130201Z AUTO 26003KT 2SM -SN OVC030 M06/M09 A2999 RMK AO2 P0000
                 T10611089 =
2016-02-12 20:56 METAR KCXY 130156Z AUTO 25003KT 1 3/4SM -SN OVC026 M06/M09 A2999 RMK AO2 SLP161
                 P0000 T10611089 =
2016-02-12 20:51 METAR KCXY 130151Z AUTO 26003KT 2SM -SN OVC026 M06/M09 A2999 RMK AO2 P0000 =
2016-02-12 20:20 METAR KCXY 130120Z 00000KT 2 1/2SM -SN OVC038 M06/M09 A2999 RMK AO2 P0000
                 T10611094 =
2016-02-12 19:56 METAR KCXY 130056Z 00000KT 3SM -SN OVC044 M06/M09 A2999 RMK AO2 SNB2359 SLP161
                 P0000 T10611094 =
2016-02-12 18:56 METAR KCXY 122356Z 00000KT 7SM OVC065 M06/M10 A3000 RMK AO2 SNE21 SLP164 P0000
                 60000 T10611100 11044 21061 56012 =

Support USWX by starting your Amazon purchase here.